createdAt,value
2022-11-14T00:01:22.496Z,3.33
2022-11-14T00:04:29.324Z,3.35
2022-11-14T00:07:33.229Z,3.36
2022-11-14T00:10:35.893Z,3.34
2022-11-14T00:13:40.039Z,3.35
2022-11-14T00:16:42.684Z,3.34
2022-11-14T00:19:45.479Z,3.29
2022-11-14T00:22:48.401Z,3.24
2022-11-14T00:25:51.084Z,3.08
2022-11-14T00:28:56.036Z,3.09
2022-11-14T00:31:58.680Z,3.13
2022-11-14T00:35:01.351Z,3.18
2022-11-14T00:38:04.050Z,3.17
2022-11-14T00:41:06.974Z,3.14
2022-11-14T00:44:11.568Z,3.17
2022-11-14T00:47:14.245Z,3.16
2022-11-14T00:50:17.030Z,3.19
2022-11-14T00:53:19.692Z,3.12
2022-11-14T00:56:22.384Z,3.11
2022-11-14T00:59:26.329Z,3.07
2022-11-14T01:02:28.983Z,3.15
2022-11-14T01:05:31.629Z,3.12
2022-11-14T01:08:34.483Z,3.08
2022-11-14T01:11:37.288Z,3.00
2022-11-14T01:14:41.883Z,2.98
2022-11-14T01:17:44.601Z,2.98
2022-11-14T01:20:48.798Z,2.98
2022-11-14T01:23:51.442Z,2.94
2022-11-14T01:26:56.048Z,2.92
2022-11-14T01:30:00.069Z,2.94
2022-11-14T01:33:03.273Z,2.91
2022-11-14T01:36:06.620Z,2.93
2022-11-14T01:39:09.252Z,2.88
2022-11-14T01:42:11.900Z,2.99
2022-11-14T01:45:52.231Z,3.00
2022-11-14T01:48:58.101Z,3.05
2022-11-14T01:52:04.390Z,3.16
2022-11-14T01:55:09.669Z,3.19
2022-11-14T01:58:12.816Z,3.24
2022-11-14T02:01:17.190Z,3.25
2022-11-14T02:04:24.061Z,3.21
2022-11-14T02:07:29.439Z,3.25
2022-11-14T02:10:32.193Z,3.25
2022-11-14T02:13:34.855Z,3.41
2022-11-14T02:16:40.452Z,3.46
2022-11-14T02:19:45.696Z,3.47
2022-11-14T02:22:50.029Z,3.53
2022-11-14T02:25:52.848Z,3.55
2022-11-14T02:28:56.383Z,3.64
2022-11-14T02:31:59.094Z,3.69
2022-11-14T02:35:01.717Z,3.72
2022-11-14T02:38:05.864Z,3.75
2022-11-14T02:41:08.501Z,3.76
2022-11-14T02:44:11.168Z,3.79
2022-11-14T02:47:13.909Z,3.85
2022-11-14T02:50:17.087Z,3.93
2022-11-14T02:53:21.183Z,3.92
2022-11-14T02:56:23.884Z,3.93
2022-11-14T02:59:26.550Z,3.95
2022-11-14T03:02:29.172Z,4.00
2022-11-14T03:05:31.799Z,4.00
2022-11-14T03:08:36.261Z,4.02
2022-11-14T03:11:39.805Z,4.09
2022-11-14T03:14:42.433Z,4.07
2022-11-14T03:17:45.056Z,4.09
2022-11-14T03:20:47.777Z,4.01
2022-11-14T03:23:51.846Z,3.98
2022-11-14T03:26:54.591Z,3.91
2022-11-14T03:29:57.674Z,3.85
2022-11-14T03:33:00.341Z,3.80
2022-11-14T03:36:03.844Z,3.76
2022-11-14T03:39:09.127Z,3.73
2022-11-14T03:42:11.856Z,3.80
2022-11-14T03:45:14.544Z,3.96
2022-11-14T03:48:17.268Z,4.03
2022-11-14T03:51:19.927Z,4.03
2022-11-14T03:54:23.953Z,4.06
2022-11-14T03:57:26.886Z,4.11
2022-11-14T04:00:29.843Z,4.13
2022-11-14T04:03:32.562Z,4.01
2022-11-14T04:06:35.224Z,3.99
2022-11-14T04:09:39.169Z,3.75
2022-11-14T04:12:41.792Z,3.60
2022-11-14T04:15:44.395Z,3.59
2022-11-14T04:18:47.159Z,3.52
2022-11-14T04:21:49.825Z,3.56
2022-11-14T04:24:54.044Z,3.59
2022-11-14T04:27:56.689Z,3.61
2022-11-14T04:31:00.295Z,3.64
2022-11-14T04:34:03.110Z,3.77
2022-11-14T04:37:05.728Z,3.85
2022-11-14T04:40:11.110Z,3.90
2022-11-14T04:43:13.754Z,3.97
2022-11-14T04:46:16.432Z,4.01
2022-11-14T04:49:19.080Z,4.12
2022-11-14T04:52:21.683Z,4.09
2022-11-14T04:55:26.105Z,4.05
2022-11-14T04:58:29.467Z,4.02
2022-11-14T05:01:32.417Z,3.91
2022-11-14T05:04:35.190Z,3.71
2022-11-14T05:07:37.933Z,3.72
2022-11-14T05:10:45.529Z,3.75
2022-11-14T05:13:48.496Z,3.76
2022-11-14T05:16:51.140Z,3.67
2022-11-14T05:19:53.777Z,3.67
2022-11-14T05:22:58.400Z,3.57
2022-11-14T05:26:07.663Z,3.43
2022-11-14T05:29:10.387Z,3.40
2022-11-14T05:32:16.317Z,3.38
2022-11-14T05:35:19.159Z,3.34
2022-11-14T05:38:21.862Z,3.34
2022-11-14T05:41:26.095Z,3.33
2022-11-14T05:44:28.743Z,3.33
2022-11-14T05:47:31.523Z,3.39
2022-11-14T05:50:34.169Z,3.43
2022-11-14T05:53:36.934Z,3.50
2022-11-14T05:56:40.944Z,3.51
2022-11-14T05:59:43.588Z,3.51
2022-11-14T06:02:46.829Z,3.55
2022-11-14T06:05:49.461Z,3.45
2022-11-14T06:08:52.138Z,3.32
2022-11-14T06:11:56.126Z,3.32
2022-11-14T06:14:58.816Z,3.35
2022-11-14T06:18:01.437Z,3.37
2022-11-14T06:21:06.659Z,3.40
2022-11-14T06:24:09.428Z,3.45
2022-11-14T06:27:13.445Z,3.51
2022-11-14T06:30:16.636Z,3.59
2022-11-14T06:33:19.305Z,3.67
2022-11-14T06:36:24.399Z,3.75
2022-11-14T06:39:27.033Z,3.81
2022-11-14T06:42:31.287Z,3.85
2022-11-14T06:45:33.903Z,3.92
2022-11-14T06:48:36.846Z,3.99
2022-11-14T06:51:39.484Z,4.05
2022-11-14T06:54:42.295Z,4.15
2022-11-14T06:57:46.347Z,4.23
2022-11-14T07:00:49.056Z,4.34
2022-11-14T07:03:54.860Z,4.45
2022-11-14T07:06:57.591Z,4.44
2022-11-14T07:10:00.269Z,4.33
2022-11-14T07:13:04.349Z,4.26
2022-11-14T07:16:07.590Z,4.21
2022-11-14T07:19:13.396Z,4.25
2022-11-14T07:22:16.078Z,4.31
2022-11-14T07:25:18.688Z,4.35
2022-11-14T07:28:22.710Z,4.31
2022-11-14T07:31:25.389Z,4.27
2022-11-14T07:34:28.025Z,4.23
2022-11-14T07:37:30.693Z,4.21
2022-11-14T07:40:33.378Z,4.30
2022-11-14T07:43:38.452Z,4.36
2022-11-14T07:46:41.113Z,4.39
2022-11-14T07:49:43.741Z,4.40
2022-11-14T07:52:51.600Z,4.43
2022-11-14T07:55:54.336Z,4.47
2022-11-14T07:58:59.365Z,4.56
2022-11-14T08:02:02.019Z,4.66
2022-11-14T08:05:05.144Z,4.74
2022-11-14T08:08:07.913Z,4.83
2022-11-14T08:11:10.568Z,4.95
2022-11-14T08:14:14.521Z,5.09
2022-11-14T08:17:17.208Z,5.18
2022-11-14T08:20:20.037Z,5.24
2022-11-14T08:23:25.037Z,5.30
2022-11-14T08:26:31.545Z,5.36
2022-11-14T08:29:38.619Z,5.48
2022-11-14T08:32:41.284Z,5.61
2022-11-14T08:35:43.889Z,5.67
2022-11-14T08:38:46.521Z,5.80
2022-11-14T08:41:49.253Z,5.89
2022-11-14T08:44:53.265Z,6.08
2022-11-14T08:47:56.077Z,6.42
2022-11-14T08:50:59.064Z,6.83
2022-11-14T08:54:01.787Z,7.28
2022-11-14T08:57:06.495Z,7.74
2022-11-14T09:00:12.045Z,8.03
2022-11-14T09:03:16.043Z,8.12
2022-11-14T09:06:18.908Z,8.30
2022-11-14T09:09:21.661Z,8.41
2022-11-14T09:12:24.376Z,8.53
2022-11-14T09:15:29.109Z,8.60
2022-11-14T09:18:32.411Z,8.65
2022-11-14T09:21:35.462Z,8.76
2022-11-14T09:24:38.152Z,8.75
2022-11-14T09:27:40.781Z,8.75
2022-11-14T09:30:44.952Z,8.84
2022-11-14T09:33:47.623Z,8.83
2022-11-14T09:36:50.504Z,8.87
2022-11-14T09:39:53.171Z,8.92
2022-11-14T09:43:11.811Z,8.93
2022-11-14T09:46:21.540Z,9.03
2022-11-14T09:49:31.157Z,9.10
2022-11-14T09:52:38.110Z,9.08
2022-11-14T09:55:41.344Z,9.15
2022-11-14T09:58:44.084Z,9.18
2022-11-14T10:01:52.757Z,9.28
2022-11-14T10:05:10.018Z,9.39
2022-11-14T10:08:23.911Z,9.40
2022-11-14T10:11:34.829Z,9.46
2022-11-14T10:14:53.315Z,9.51
2022-11-14T10:18:10.052Z,9.66
2022-11-14T10:21:37.327Z,9.87
2022-11-14T10:24:57.284Z,10.11
2022-11-14T10:28:12.298Z,10.71
2022-11-14T10:31:28.014Z,11.20
2022-11-14T10:34:36.773Z,11.34
2022-11-14T10:37:47.552Z,11.37
2022-11-14T10:40:53.821Z,11.25
2022-11-14T10:43:57.324Z,11.13
2022-11-14T10:47:05.355Z,10.98
2022-11-14T10:50:19.403Z,10.86
2022-11-14T10:53:29.649Z,10.82
2022-11-14T10:56:32.327Z,10.83
2022-11-14T10:59:34.976Z,11.00
2022-11-14T11:02:50.031Z,11.16
2022-11-14T11:05:57.512Z,11.27
2022-11-14T11:09:17.752Z,11.48
2022-11-14T11:12:23.284Z,11.58
2022-11-14T11:15:31.440Z,11.69
2022-11-14T11:18:35.655Z,11.71
2022-11-14T11:21:49.259Z,11.63
2022-11-14T11:24:51.951Z,11.61
2022-11-14T11:28:11.733Z,11.60
2022-11-14T11:31:14.413Z,11.54
2022-11-14T11:34:20.408Z,11.57
2022-11-14T11:40:31.985Z,11.55
2022-11-14T11:43:43.790Z,11.56
2022-11-14T11:46:51.490Z,11.54
2022-11-14T11:49:54.964Z,11.49
2022-11-14T11:53:08.053Z,11.42
2022-11-14T11:56:13.890Z,11.52
2022-11-14T11:59:27.694Z,11.48
2022-11-14T12:02:30.441Z,11.40
2022-11-14T12:05:48.597Z,11.35
2022-11-14T12:09:18.983Z,11.35
2022-11-14T12:12:33.451Z,11.31
2022-11-14T12:15:49.310Z,11.23
2022-11-14T12:19:36.555Z,11.34
2022-11-14T12:23:07.969Z,11.35
2022-11-14T12:26:31.136Z,11.34
2022-11-14T12:29:56.615Z,11.46
2022-11-14T12:33:02.921Z,11.50
2022-11-14T12:36:10.120Z,11.59
2022-11-14T12:39:23.548Z,12.29
2022-11-14T12:42:27.745Z,13.98
2022-11-14T12:45:59.754Z,16.66
2022-11-14T12:49:02.488Z,18.84
2022-11-14T12:52:05.989Z,18.82
2022-11-14T12:55:47.059Z,18.33
2022-11-14T12:59:13.401Z,17.92
2022-11-14T13:02:43.387Z,18.09
2022-11-14T13:05:55.270Z,17.36
2022-11-14T13:09:35.050Z,16.30
2022-11-14T13:12:55.846Z,15.34
2022-11-14T13:16:18.879Z,14.63
2022-11-14T13:19:40.328Z,14.09
2022-11-14T13:22:44.733Z,13.66
2022-11-14T13:25:47.389Z,13.37
2022-11-14T13:28:51.839Z,13.16
2022-11-14T13:31:55.856Z,12.99
2022-11-14T13:35:05.099Z,12.99
2022-11-14T13:39:01.334Z,12.89
2022-11-14T13:42:19.087Z,12.83
2022-11-14T13:45:46.124Z,12.93
2022-11-14T13:49:06.613Z,12.90
2022-11-14T13:52:11.480Z,12.94
2022-11-14T13:55:22.746Z,13.00
2022-11-14T13:58:42.003Z,13.10
2022-11-14T14:02:06.090Z,13.21
2022-11-14T14:05:22.019Z,13.31
2022-11-14T14:08:41.731Z,13.32
2022-11-14T14:11:57.049Z,13.35
2022-11-14T14:15:09.945Z,13.33
2022-11-14T14:18:23.895Z,13.31
2022-11-14T14:21:38.767Z,13.20
2022-11-14T14:24:50.752Z,13.05
2022-11-14T14:28:07.167Z,12.97
2022-11-14T14:31:13.134Z,12.94
2022-11-14T14:34:23.955Z,13.04
2022-11-14T14:37:29.295Z,13.07
2022-11-14T14:40:34.479Z,13.00
2022-11-14T14:43:37.817Z,12.95
2022-11-14T14:46:40.468Z,12.91
2022-11-14T14:49:44.250Z,12.89
2022-11-14T14:52:57.401Z,12.81
2022-11-14T14:56:01.888Z,12.72
2022-11-14T14:59:17.587Z,12.62
2022-11-14T15:02:23.969Z,12.55
2022-11-14T15:05:29.060Z,12.64
2022-11-14T15:08:38.086Z,12.78
2022-11-14T15:11:44.348Z,12.71
2022-11-14T15:14:48.947Z,12.64
2022-11-14T15:17:53.123Z,12.61
2022-11-14T15:21:15.263Z,12.61
2022-11-14T15:24:20.840Z,12.58
2022-11-14T15:27:23.585Z,12.59
2022-11-14T15:30:30.801Z,12.59
2022-11-14T15:33:36.236Z,12.55
2022-11-14T15:37:22.647Z,12.53
2022-11-14T15:40:26.890Z,12.45
2022-11-14T15:43:49.300Z,12.40
2022-11-14T15:46:52.134Z,12.38
2022-11-14T15:50:02.925Z,12.30
2022-11-14T15:53:07.973Z,12.25
2022-11-14T15:56:14.179Z,12.26
2022-11-14T15:59:16.904Z,12.25
2022-11-14T16:02:22.869Z,12.29
2022-11-14T16:05:29.433Z,12.19
2022-11-14T16:08:32.396Z,12.12
2022-11-14T16:11:36.657Z,11.99
2022-11-14T16:14:39.411Z,11.93
2022-11-14T16:17:43.584Z,11.89
2022-11-14T16:20:46.234Z,11.81
2022-11-14T16:23:49.932Z,11.71
2022-11-14T16:26:53.980Z,11.61
2022-11-14T16:29:56.977Z,11.56
2022-11-14T16:33:00.066Z,11.53
2022-11-14T16:36:02.829Z,11.45
2022-11-14T16:39:11.161Z,11.38
2022-11-14T16:42:15.234Z,11.30
2022-11-14T16:45:20.225Z,11.23
2022-11-14T16:48:22.957Z,11.08
2022-11-14T16:54:48.373Z,10.90
2022-11-14T16:57:52.429Z,10.94
2022-11-14T17:00:55.164Z,10.96
2022-11-14T17:03:59.956Z,10.89
2022-11-14T17:07:02.729Z,10.76
2022-11-14T17:10:06.830Z,10.67
2022-11-14T17:13:11.509Z,10.58
2022-11-14T17:16:14.234Z,10.55
2022-11-14T17:19:16.969Z,10.53
2022-11-14T17:22:20.791Z,10.56
2022-11-14T17:25:24.085Z,10.54
2022-11-14T17:28:28.361Z,10.66
2022-11-14T17:31:36.501Z,10.79
2022-11-14T17:34:40.533Z,10.83
2022-11-14T17:37:43.335Z,10.95
2022-11-14T17:40:46.070Z,10.95
2022-11-14T17:43:56.620Z,10.94
2022-11-14T17:46:59.379Z,10.94
2022-11-14T17:50:02.039Z,10.96
2022-11-14T17:53:04.723Z,11.02
2022-11-14T17:56:10.838Z,11.01
2022-11-14T17:59:15.314Z,11.03
2022-11-14T18:02:19.270Z,11.03
2022-11-14T18:05:22.150Z,11.13
2022-11-14T18:08:25.857Z,11.19
2022-11-14T18:11:28.574Z,11.27
2022-11-14T18:14:32.767Z,11.28
2022-11-14T18:17:35.903Z,11.27
2022-11-14T18:20:39.065Z,11.30
2022-11-14T18:23:41.914Z,11.38
2022-11-14T18:26:44.653Z,11.42
2022-11-14T18:29:48.807Z,11.39
2022-11-14T18:32:51.457Z,11.37
2022-11-14T18:35:58.389Z,11.28
2022-11-14T18:39:01.217Z,11.26
2022-11-14T18:42:04.158Z,11.19
2022-11-14T18:45:10.244Z,11.12
2022-11-14T18:48:13.047Z,11.07
2022-11-14T18:51:18.477Z,11.01
2022-11-14T18:54:21.205Z,10.94
2022-11-14T18:57:23.920Z,10.87
2022-11-14T19:00:28.091Z,10.80
2022-11-14T19:03:32.338Z,10.72
2022-11-14T19:06:37.056Z,10.63
2022-11-14T19:09:40.903Z,10.54
2022-11-14T19:12:43.684Z,10.59
2022-11-14T19:15:47.751Z,10.59
2022-11-14T19:18:50.416Z,10.57
2022-11-14T19:21:53.124Z,10.55
2022-11-14T19:24:57.828Z,10.54
2022-11-14T19:28:00.535Z,10.52
2022-11-14T19:31:05.494Z,10.45
2022-11-14T19:34:09.462Z,10.32
2022-11-14T19:37:12.140Z,10.25
2022-11-14T19:40:15.420Z,10.19
2022-11-14T19:43:18.727Z,10.15
2022-11-14T19:46:25.021Z,10.07
2022-11-14T19:49:27.743Z,10.01
2022-11-14T19:52:30.484Z,9.99
2022-11-14T19:55:33.222Z,10.00
2022-11-14T19:58:36.419Z,9.97
2022-11-14T20:01:41.997Z,9.94
2022-11-14T20:04:47.671Z,9.90
2022-11-14T20:07:50.388Z,9.89
2022-11-14T20:10:58.158Z,9.87
2022-11-14T20:14:02.204Z,9.80
2022-11-14T20:17:06.339Z,9.82
2022-11-14T20:20:09.826Z,9.80
2022-11-14T20:23:12.990Z,9.76
2022-11-14T20:26:17.272Z,9.74
2022-11-14T20:29:20.085Z,9.69
2022-11-14T20:32:24.208Z,9.63
2022-11-14T20:35:26.955Z,9.64
2022-11-14T20:38:29.861Z,9.59
2022-11-14T20:41:32.796Z,9.58
2022-11-14T20:44:35.618Z,9.62
2022-11-14T20:47:39.682Z,9.62
2022-11-14T20:50:42.408Z,9.61
2022-11-14T20:53:45.500Z,9.61
2022-11-14T20:56:48.217Z,9.56
2022-11-14T20:59:51.556Z,9.60
2022-11-14T21:02:55.650Z,9.61
2022-11-14T21:06:00.860Z,9.66
2022-11-14T21:09:03.540Z,9.65
2022-11-14T21:12:06.616Z,9.69
2022-11-14T21:15:10.380Z,9.70
2022-11-14T21:18:14.384Z,9.68
2022-11-14T21:21:18.689Z,9.71
2022-11-14T21:24:21.373Z,9.69
2022-11-14T21:31:04.406Z,9.61
2022-11-14T21:34:17.828Z,9.61
2022-11-14T21:37:37.885Z,9.58
2022-11-14T21:40:52.388Z,9.57
2022-11-14T21:44:02.973Z,9.53
2022-11-14T21:47:11.714Z,9.47
2022-11-14T21:50:28.590Z,9.41
2022-11-14T21:53:40.198Z,9.40
2022-11-14T21:56:51.771Z,9.35
2022-11-14T22:00:03.305Z,9.29
2022-11-14T22:03:31.636Z,9.23
2022-11-14T22:06:56.181Z,9.13
2022-11-14T22:10:13.522Z,9.07
2022-11-14T22:13:22.070Z,9.02
2022-11-14T22:16:29.450Z,8.96
2022-11-14T22:19:39.894Z,8.95
2022-11-14T22:22:52.876Z,8.96
2022-11-14T22:26:04.776Z,9.00
2022-11-14T22:29:14.543Z,9.03
2022-11-14T22:32:25.332Z,9.04
2022-11-14T22:35:48.789Z,9.05
2022-11-14T22:39:04.295Z,9.13
2022-11-14T22:42:19.887Z,9.21
2022-11-14T22:45:33.722Z,9.28
2022-11-14T22:48:47.421Z,9.34
2022-11-14T22:52:00.254Z,9.34
2022-11-14T22:55:18.330Z,9.41
2022-11-14T22:58:43.097Z,9.49
2022-11-14T23:01:56.991Z,9.62
2022-11-14T23:05:13.757Z,9.76
2022-11-14T23:08:29.257Z,9.97
2022-11-14T23:11:48.805Z,10.13
2022-11-14T23:15:03.599Z,10.22
2022-11-14T23:18:36.375Z,10.28
2022-11-14T23:21:55.378Z,10.32
2022-11-14T23:28:54.661Z,10.36
2022-11-14T23:32:06.964Z,10.46
2022-11-14T23:35:20.404Z,10.56
2022-11-14T23:38:48.361Z,10.62
2022-11-14T23:41:58.862Z,10.64
2022-11-14T23:45:16.473Z,10.67
2022-11-14T23:48:26.635Z,10.76
2022-11-14T23:51:34.828Z,10.78
2022-11-14T23:54:51.661Z,10.82
2022-11-14T23:58:00.879Z,10.87
